Latest Weather Observations for Lucas Heights

IDN60901

Issued at 5:05 pm EDT Saturday 25 October 2014 (issued every 10 minutes, with the page automatically refreshed every 10 minutes)

About weather observations | Map of Sydney area stations | Latest observations for Sydney area | Other Formats
Station Details ID: 066023 Name: LUCAS HEIGHTS AWS Lat: -34.05 Lon: 150.98 Height: 140.0 m
Data from the previous 72 hours. | See also: Recent months for locations in New South Wales
Date/Time
EDT
Tmp

°C
App
Tmp
°C
Dew
Point
°C
Rel
Hum
%
Delta-T

°C
Wind Press
QNH
hPa
Press
MSL
hPa
Rain
since
9 am
mm
Dir
 
Spd
km/h
Gust
km/h
Spd
kts
Gust
kts
25/04:45pm 22.1 20.1 17.3 74 3.0 SSE 24 33 13 18 1013.4 - 0.0
25/04:30pm 22.3 20.4 17.6 75 2.9 SSE 24 33 13 18 1013.3 - 0.0
25/04:15pm 21.5 18.4 17.4 77 2.5 SSE 30 37 16 20 1013.2 - 0.0
25/04:00pm 20.8 17.0 16.8 78 2.4 SSE 32 41 17 22 1013.4 - 0.0
25/03:45pm 21.4 18.7 16.5 73 3.0 SSE 26 33 14 18 1013.6 - 0.0
25/03:30pm 23.1 21.1 17.3 70 3.6 SSE 24 33 13 18 1013.6 - 0.0
25/03:15pm 24.0 22.9 17.7 68 4.0 SSE 20 30 11 16 1013.6 - 0.0
25/03:00pm 24.7 23.9 18.0 66 4.2 SE 19 28 10 15 1013.7 - 0.0
25/02:45pm 24.9 23.4 17.8 64 4.5 SSE 22 32 12 17 1014.0 - 0.0
25/02:30pm 25.2 24.4 17.9 64 4.6 SE 19 28 10 15 1014.1 - 0.0
25/02:15pm 25.7 24.7 18.0 62 4.9 SE 20 26 11 14 1014.3 - 0.0
25/02:00pm 26.0 25.6 18.1 61 5.0 SE 17 26 9 14 1014.4 - 0.0
25/01:45pm 26.6 26.6 18.0 59 5.5 SE 15 22 8 12 1014.5 - 0.0
25/01:30pm 26.8 26.7 17.9 58 5.7 SE 15 22 8 12 1014.4 - 0.0
25/01:15pm 26.9 26.9 18.0 58 5.7 ESE 15 22 8 12 1014.5 - 0.0
25/01:00pm 27.6 27.1 17.8 55 6.2 ESE 17 22 9 12 1014.5 - 0.0
25/12:45pm 28.7 28.7 18.2 53 6.7 E 15 22 8 12 1014.5 - 0.0
25/12:30pm 29.4 29.4 18.2 51 7.2 ENE 15 22 8 12 1014.6 - 0.0
25/12:15pm 29.5 30.6 17.9 49 7.4 ENE 9 17 5 9 1014.8 - 0.0
25/12:00pm 28.9 29.7 17.4 49 7.3 NE 9 15 5 8 1015.1 - 0.0
25/11:45am 28.9 30.2 17.1 49 7.5 NE 6 13 3 7 1015.2 - 0.0
25/11:30am 28.5 29.8 17.0 49 7.2 NE 6 13 3 7 1015.2 - 0.0
25/11:15am 28.3 29.4 17.0 50 7.1 ENE 7 13 4 7 1015.3 - 0.0
25/11:00am 27.3 28.6 17.0 53 6.5 NNE 6 11 3 6 1015.3 - 0.0
25/10:45am 26.9 27.7 16.4 52 6.5 NNE 7 15 4 8 1015.3 - 0.0
25/10:30am 27.3 28.4 16.7 52 6.6 E 6 11 3 6 1015.3 - 0.0
25/10:15am 26.8 27.8 16.4 53 6.5 E 6 11 3 6 1015.4 - 0.0
25/10:00am 26.2 27.6 16.3 54 6.1 ESE 4 11 2 6 1015.6 - 0.0
25/09:45am 24.8 25.5 15.6 56 5.6 W 6 9 3 5 1015.6 - 0.0
25/09:30am 23.8 23.8 15.3 59 5.1 W 9 13 5 7 1015.6 - 0.0
25/09:15am 23.1 23.3 15.8 63 4.4 W 9 15 5 8 1015.6 - 0.0
25/09:00am 22.6 22.4 15.8 65 4.1 W 11 15 6 8 1015.4 - 0.0
25/08:45am 24.0 24.7 15.6 59 5.1 WSW 6 13 3 7 1015.2 - 0.0
25/08:30am 22.9 24.1 15.8 64 4.3 WSW 4 7 2 4 1015.1 - 0.0
25/08:15am 21.9 23.9 17.9 78 2.5 SW 4 6 2 3 1015.2 - 0.0
25/08:00am 20.6 22.1 18.9 90 1.1 SW 9 13 5 7 1015.2 - 0.0
25/07:45am 18.6 19.4 17.4 93 0.7 SSW 9 13 5 7 1015.0 - 0.0
25/07:30am 17.6 18.0 16.4 93 0.7 SSW 9 13 5 7 1014.8 - 0.0
25/07:15am 16.9 17.1 15.7 93 0.7 S 9 13 5 7 1014.8 - 0.0
25/07:00am 16.8 17.3 15.6 93 0.7 SW 7 13 4 7 1014.6 - 0.0
25/06:45am 16.4 15.6 15.2 93 0.7 SW 13 17 7 9 1014.3 - 0.0
25/06:30am 16.5 15.7 15.2 92 0.8 SW 13 15 7 8 1014.0 - 0.0
25/06:15am 16.6 15.9 15.3 92 0.8 SW 13 17 7 9 1013.6 - 0.0
25/06:00am 17.0 17.2 15.7 92 0.8 SSW 9 13 5 7 1013.3 - 0.0
25/05:45am 17.4 17.7 16.1 92 0.8 S 9 13 5 7 1013.0 - 0.0
25/05:30am 17.5 17.9 16.2 92 0.8 SSE 9 15 5 8 1012.9 - 0.0
25/05:15am 17.7 18.5 16.4 92 0.8 S 7 11 4 6 1012.8 - 0.0
25/05:00am 17.8 18.3 16.5 92 0.8 SSE 9 13 5 7 1012.7 - 0.0
25/04:45am 17.9 18.4 16.6 92 0.8 SSE 9 13 5 7 1012.6 - 0.0
25/04:30am 17.9 18.4 16.6 92 0.8 SE 9 13 5 7 1012.6 - 0.0
25/04:15am 17.9 18.0 16.6 92 0.8 SE 11 15 6 8 1012.7 - 0.0
25/04:00am 17.9 17.6 16.5 91 0.8 SE 13 17 7 9 1012.6 - 0.0
25/03:45am 17.9 17.6 16.5 91 0.8 SE 13 19 7 10 1012.6 - 0.0
25/03:30am 17.8 17.5 16.4 91 0.8 SSE 13 15 7 8 1012.5 - 0.0
25/03:15am 17.9 17.6 16.4 91 0.9 SSE 13 17 7 9 1012.5 - 0.0
25/03:00am 17.9 17.2 16.4 91 0.9 SSE 15 17 8 9 1012.4 - 0.0
25/02:45am 17.9 17.2 16.4 91 0.9 SSE 15 17 8 9 1012.3 - 0.0
25/02:30am 17.9 17.5 16.3 90 1.0 SSE 13 17 7 9 1012.4 - 0.0
25/02:15am 18.0 17.6 16.3 90 1.0 SSE 13 17 7 9 1012.4 - 0.0
25/02:00am 18.0 17.3 16.3 90 1.0 SSE 15 22 8 12 1012.6 - 0.0
25/01:45am 18.1 17.0 16.3 89 1.1 SSE 17 20 9 11 1012.5 - 0.0
25/01:30am 18.1 16.9 16.2 89 1.1 SSE 17 22 9 12 1012.7 - 0.0
25/01:15am 18.2 16.6 15.9 86 1.4 SSE 19 22 10 12 1012.7 - 0.0
25/01:00am 18.7 18.0 16.3 86 1.4 SSE 15 20 8 11 1012.9 - 0.0
25/12:45am 19.1 17.7 16.5 85 1.6 SSE 19 22 10 12 1012.9 - 0.0
25/12:30am 19.4 18.1 16.7 84 1.6 SSE 19 22 10 12 1012.9 - 0.0
25/12:15am 19.6 19.0 16.7 83 1.8 SSE 15 20 8 11 1013.0 - 0.0
25/12:00am 19.6 18.6 16.6 83 1.8 S 17 22 9 12 1013.0 - 0.0
 
Date/Time
EDT
Tmp

°C
App
Tmp
°C
Dew
Point
°C
Rel
Hum
%
Delta-T

°C
Wind Press
QNH
hPa
Press
MSL
hPa
Rain
since
9 am
mm
Dir
 
Spd
km/h
Gust
km/h
Spd
kts
Gust
kts
24/11:45pm 19.7 19.1 16.7 83 1.8 S 15 22 8 12 1013.0 - 0.0
24/11:30pm 19.7 19.1 16.6 82 1.9 SSE 15 24 8 13 1013.2 - 0.0
24/11:15pm 19.8 18.2 16.5 81 2.0 SSE 20 30 11 16 1013.0 - 0.0
24/11:00pm 20.2 21.1 16.7 80 2.1 ENE 7 13 4 7 1012.6 - 0.0
24/10:45pm 20.4 20.6 16.8 80 2.2 ENE 11 17 6 9 1012.6 - 0.0
24/10:30pm 20.5 20.4 16.9 80 2.2 NE 13 19 7 10 1012.8 - 0.0
24/10:15pm 20.7 20.6 17.0 79 2.3 ENE 13 15 7 8 1013.1 - 0.0
24/10:00pm 20.8 21.5 17.0 79 2.3 NNE 9 15 5 8 1013.7 - 0.0
24/09:45pm 20.8 20.7 17.0 79 2.3 NNE 13 19 7 10 1013.8 - 0.0
24/09:30pm 21.0 20.6 17.1 78 2.4 NE 15 19 8 10 1013.4 - 0.0
24/09:15pm 21.0 21.7 17.1 78 2.4 NE 9 17 5 9 1013.6 - 0.0
24/09:00pm 20.8 20.7 17.0 79 2.3 NE 13 19 7 10 1013.2 - 0.0
24/08:45pm 20.7 20.6 16.9 79 2.3 NE 13 17 7 9 1013.1 - 0.0
24/08:30pm 20.8 21.1 16.9 78 2.4 ENE 11 15 6 8 1013.1 - 0.0
24/08:15pm 20.9 21.2 16.9 78 2.4 ENE 11 15 6 8 1013.0 - 0.0
24/08:00pm 21.1 20.9 16.8 76 2.6 ENE 13 15 7 8 1012.9 - 0.0
24/07:45pm 21.4 21.2 16.8 75 2.8 ENE 13 17 7 9 1012.8 - 0.0
24/07:30pm 21.7 21.5 16.8 73 3.0 ENE 13 19 7 10 1012.8 - 0.0
24/07:15pm 22.1 21.6 16.9 72 3.2 ENE 15 19 8 10 1012.7 - 0.0
24/07:00pm 22.5 22.0 17.0 71 3.4 ENE 15 20 8 11 1012.6 - 0.0
24/06:45pm 22.9 22.4 17.0 69 3.6 ENE 15 19 8 10 1012.5 - 0.0
24/06:30pm 23.7 23.4 17.3 67 4.0 ENE 15 22 8 12 1012.5 - 0.0
24/06:15pm 24.1 23.5 17.5 66 4.1 ENE 17 22 9 12 1012.5 - 0.0
24/06:00pm 24.2 23.7 17.7 67 4.1 ENE 17 22 9 12 1012.5 - 0.0
24/05:45pm 24.2 23.7 17.7 67 4.1 ENE 17 22 9 12 1012.6 - 0.0
24/05:30pm 24.4 23.5 17.7 66 4.2 ENE 19 24 10 13 1012.7 - 0.0
24/05:15pm 24.6 23.8 18.0 66 4.2 ENE 19 30 10 16 1012.9 - 0.0
24/05:00pm 24.2 23.1 17.7 67 4.1 ENE 20 26 11 14 1013.1 - 0.0
24/04:45pm 24.7 23.5 17.6 64 4.5 ENE 20 28 11 15 1013.1 - 0.0
24/04:30pm 25.5 24.4 17.7 62 4.9 ENE 20 30 11 16 1013.2 - 0.0
24/04:15pm 26.4 25.7 18.3 61 5.2 NE 19 28 10 15 1013.4 - 0.0
24/04:00pm 26.4 25.6 18.5 62 5.1 ENE 20 30 11 16 1013.5 - 0.0
24/03:45pm 26.3 25.1 18.4 61 5.0 ENE 22 30 12 16 1013.8 - 0.0
24/03:30pm 26.5 25.7 18.5 61 5.1 ENE 20 30 11 16 1014.0 - 0.0
24/03:15pm 26.8 26.1 18.6 60 5.3 NE 20 30 11 16 1014.3 - 0.0
24/03:00pm 26.5 25.9 18.8 62 5.0 ENE 20 30 11 16 1014.5 - 0.0
24/02:45pm 26.3 26.2 18.8 63 4.8 ENE 17 24 9 13 1014.9 - 0.0
24/02:30pm 26.2 26.1 18.8 63 4.8 ENE 17 28 9 15 1015.2 - 0.0
24/02:15pm 26.1 25.5 18.5 63 4.9 ENE 19 28 10 15 1015.6 - 0.0
24/02:00pm 26.7 25.8 18.2 59 5.4 ENE 20 28 11 15 1015.7 - 0.0
24/01:45pm 27.1 25.9 17.0 54 6.3 NE 19 32 10 17 1016.0 - 0.0
24/01:30pm 27.1 25.3 15.9 50 6.9 NNE 20 33 11 18 1016.3 - 0.0
24/01:15pm 26.5 25.8 16.3 53 6.3 N 15 32 8 17 1016.6 - 0.0
24/01:00pm 26.1 25.1 16.5 55 6.0 NNE 17 30 9 16 1016.9 - 0.0
24/12:45pm 25.4 24.7 16.4 57 5.6 N 15 24 8 13 1017.2 - 0.0
24/12:30pm 25.0 24.8 16.7 60 5.1 N 13 22 7 12 1017.5 - 0.0
24/12:15pm 24.4 24.3 16.9 63 4.7 N 13 22 7 12 1017.9 - 0.0
24/12:00pm 23.8 23.8 17.2 66 4.1 N 13 22 7 12 1018.3 - 0.0
24/11:45am 23.1 23.5 18.1 73 3.1 NNW 13 22 7 12 1018.7 - 0.0
24/11:30am 21.7 21.2 17.7 78 2.5 N 17 26 9 14 1019.0 - 0.0
24/11:15am 20.8 20.6 17.7 82 1.9 N 15 26 8 14 1019.5 - 0.0
24/11:00am 19.8 19.8 17.1 84 1.7 NNW 13 19 7 10 1019.7 - 0.0
24/10:45am 19.6 19.8 16.8 84 1.7 NE 11 19 6 10 1019.7 - 0.0
24/10:30am 19.5 20.0 16.5 83 1.8 SSW 9 15 5 8 1020.4 - 0.0
24/10:15am 19.6 19.7 16.4 82 1.9 W 11 19 6 10 1020.4 - 0.0
24/10:00am 20.1 19.6 16.8 81 2.0 WNW 15 22 8 12 1020.2 - 0.0
24/09:45am 19.8 19.3 16.8 83 1.8 NW 15 20 8 11 1020.2 - 0.0
24/09:30am 19.5 19.4 16.9 85 1.6 NW 13 20 7 11 1020.2 - 0.0
24/09:15am 19.2 18.3 16.8 86 1.5 NW 17 26 9 14 1020.4 - 0.0
24/09:00am 19.0 18.8 16.8 87 1.3 NW 13 22 7 12 1020.2 - 0.0
24/08:45am 18.5 18.2 16.4 87 1.3 WNW 13 19 7 10 1020.2 - 0.0
24/08:30am 17.9 18.2 15.9 88 1.2 WNW 9 15 5 8 1020.2 - 0.0
24/08:15am 17.8 17.7 15.9 89 1.1 NW 11 17 6 9 1020.2 - 0.0
24/08:00am 17.6 17.5 15.9 90 1.0 NW 11 15 6 8 1020.2 - 0.0
24/07:45am 17.4 17.6 15.7 90 1.0 NNW 9 17 5 9 1020.2 - 0.0
24/07:30am 17.2 17.7 15.6 90 0.9 NE 7 22 4 12 1019.8 - 0.0
24/07:15am 16.8 14.7 15.2 90 0.9 ENE 20 28 11 15 1019.2 - 0.0
24/07:00am 16.6 15.4 15.1 91 0.9 SE 15 19 8 10 1020.4 - 0.0
24/06:45am 16.5 15.6 14.9 90 0.9 SE 13 19 7 10 1020.6 - 0.0
24/06:30am 16.4 15.1 14.8 90 0.9 SE 15 19 8 10 1020.3 - 0.0
24/06:15am 16.2 14.8 14.6 90 0.9 SE 15 17 8 9 1020.2 - 0.0
24/06:00am 16.2 16.4 14.6 90 0.9 ESE 7 13 4 7 1020.1 - 0.0
24/05:45am 16.5 17.3 14.8 90 1.0 N 4 6 2 3 1020.0 - 0.0
24/05:30am 16.4 16.2 14.7 90 1.0 ENE 9 17 5 9 1019.6 - 0.0
24/05:15am 16.4 17.2 14.7 90 1.0 W 4 7 2 4 1020.2 - 0.0
24/05:00am 16.5 16.3 14.7 89 1.0 W 9 15 5 8 1020.3 - 0.0
24/04:45am 16.6 17.0 14.8 89 1.0 SSW 6 11 3 6 1019.8 - 0.0
24/04:30am 16.7 17.2 15.0 90 1.0 E 6 9 3 5 1019.6 - 0.0
24/04:15am 16.7 17.0 15.1 90 0.9 N 7 13 4 7 1019.6 - 0.0
24/04:00am 16.8 16.1 15.3 91 0.9 W 13 26 7 14 1020.2 - 0.0
24/03:45am 16.6 13.7 15.2 91 0.8 WSW 24 35 13 19 1020.6 - 0.0
24/03:30am 16.8 14.0 15.3 91 0.9 WSW 24 37 13 20 1020.2 - 0.0
24/03:15am 16.9 17.9 15.3 90 0.9 W 4 13 2 7 1019.2 - 0.0
24/03:00am 17.1 18.2 15.5 90 0.9 S 4 9 2 5 1019.3 - 0.0
24/02:45am 17.2 17.3 15.6 90 0.9 E 9 15 5 8 1019.2 - 0.0
24/02:30am 17.4 16.8 15.7 90 1.0 ENE 13 20 7 11 1019.0 - 0.0
24/02:15am 17.5 17.0 15.9 90 0.9 E 13 22 7 12 1019.2 - 0.0
24/02:00am 17.5 15.9 16.0 91 0.9 SE 19 28 10 15 1020.3 - 0.0
24/01:45am 17.5 15.9 15.9 90 0.9 SSE 19 26 10 14 1020.9 - 0.0
24/01:30am 17.4 15.6 15.9 91 0.9 SSE 20 30 11 16 1021.1 - 0.0
24/01:15am 17.2 15.2 15.5 90 1.0 SSE 20 26 11 14 1021.2 - 0.0
24/01:00am 17.2 15.2 15.6 90 0.9 SSE 20 30 11 16 1021.2 - 0.0
24/12:45am 17.2 15.9 15.7 91 0.9 SE 17 22 9 12 1020.9 - 0.0
24/12:30am 17.0 15.5 15.4 90 0.9 SSE 17 24 9 13 1021.1 - 0.0
24/12:15am 16.9 15.8 15.2 90 1.0 SSE 15 19 8 10 1021.2 - 0.0
24/12:00am 16.9 16.1 15.1 89 1.1 SSE 13 19 7 10 1021.0 - 0.0
 
Date/Time
EDT
Tmp

°C
App
Tmp
°C
Dew
Point
°C
Rel
Hum
%
Delta-T

°C
Wind Press
QNH
hPa
Press
MSL
hPa
Rain
since
9 am
mm
Dir
 
Spd
km/h
Gust
km/h
Spd
kts
Gust
kts
23/11:45pm 17.1 16.7 15.3 89 1.1 SSE 11 15 6 8 1020.8 - 0.0
23/11:30pm 17.1 17.1 15.3 89 1.1 SE 9 13 5 7 1020.8 - 0.0
23/11:15pm 17.2 16.9 15.4 89 1.1 SE 11 15 6 8 1020.8 - 0.0
23/11:00pm 17.2 16.9 15.4 89 1.1 SE 11 15 6 8 1020.8 - 0.0
23/10:45pm 17.2 17.2 15.3 88 1.1 SSE 9 15 5 8 1021.0 - 0.0
23/10:30pm 17.2 16.8 15.2 88 1.2 SSE 11 15 6 8 1020.9 - 0.0
23/10:15pm 17.5 17.6 15.4 87 1.2 SE 9 15 5 8 1020.5 - 0.0
23/10:00pm 17.5 16.4 15.4 87 1.2 SE 15 22 8 12 1020.2 - 0.0
23/09:45pm 17.6 16.5 15.3 86 1.4 SE 15 20 8 11 1020.2 - 0.0
23/09:30pm 17.8 17.0 15.2 85 1.5 SE 13 22 7 12 1020.1 - 0.0
23/09:15pm 18.0 16.5 15.3 84 1.6 SE 17 22 9 12 1019.9 - 0.0
23/09:00pm 17.9 16.0 15.2 84 1.6 SE 19 22 10 12 1019.6 - 0.0
23/08:45pm 18.0 17.6 15.1 83 1.7 SE 11 19 6 10 1019.6 - 0.0
23/08:30pm 17.8 17.6 14.7 82 1.8 SSE 9 13 5 7 1019.5 - 0.0
23/08:15pm 18.2 18.1 14.9 81 1.9 SSE 9 13 5 7 1019.4 - 0.0
23/08:00pm 18.6 18.9 14.9 79 2.2 S 7 9 4 5 1019.2 - 0.0
23/07:45pm 19.0 18.5 15.0 77 2.4 SSE 11 15 6 8 1018.9 - 0.0
23/07:30pm 19.4 18.6 15.0 75 2.6 SE 13 15 7 8 1018.8 - 0.0
23/07:15pm 19.9 18.7 15.1 74 2.8 ESE 15 20 8 11 1018.5 - 0.0
23/07:00pm 20.4 19.2 15.0 71 3.2 ESE 15 19 8 10 1018.3 - 0.0
23/06:45pm 20.9 20.1 15.0 69 3.5 SE 13 17 7 9 1018.1 - 0.0
23/06:30pm 21.5 21.4 15.0 66 3.9 ESE 9 15 5 8 1018.0 - 0.0
23/06:15pm 21.9 21.8 14.9 64 4.2 SE 9 13 5 7 1018.0 - 0.0
23/06:00pm 22.1 21.2 14.9 63 4.3 ESE 13 19 7 10 1017.8 - 0.0
23/05:45pm 22.8 21.2 15.1 62 4.6 ESE 17 24 9 13 1017.2 - 0.0
23/05:30pm 23.5 22.0 15.2 59 5.0 SE 17 22 9 12 1017.0 - 0.0
23/05:15pm 23.7 22.1 15.0 58 5.2 ESE 17 22 9 12 1016.9 - 0.0
23/05:00pm 24.4 22.1 14.7 54 5.8 ESE 20 26 11 14 1016.8 - 0.0
23/04:45pm 24.3 22.5 14.4 54 5.9 ESE 17 24 9 13 1016.8 - 0.0
23/04:30pm 25.1 22.9 14.3 51 6.4 ESE 19 30 10 16 1016.5 - 0.0
23/04:15pm 25.4 23.6 14.4 50 6.6 SE 17 30 9 16 1016.2 - 0.0
23/04:00pm 25.8 22.5 13.9 47 7.1 SE 24 33 13 18 1016.1 - 0.0
23/03:45pm 25.8 23.0 13.3 46 7.4 SE 20 30 11 16 1016.1 - 0.0
23/03:30pm 26.1 22.9 13.2 44 7.6 ESE 22 30 12 16 1016.0 - 0.0
23/03:15pm 26.8 24.1 13.4 43 7.9 SE 20 30 11 16 1015.9 - 0.0
23/03:00pm 27.2 24.0 13.2 42 8.3 SE 22 33 12 18 1016.0 - 0.0
23/02:45pm 27.6 24.5 13.5 41 8.4 SSE 22 32 12 17 1016.0 - 0.0
23/02:30pm 27.9 24.6 12.8 39 8.9 SE 22 33 12 18 1016.2 - 0.0
23/02:15pm 28.8 26.1 13.6 39 9.1 ESE 20 33 11 18 1016.3 - 0.0
23/02:00pm 29.0 26.4 13.2 37 9.4 SE 19 26 10 14 1016.5 - 0.0
23/01:45pm 29.1 27.9 14.0 39 9.1 SE 13 22 7 12 1016.6 - 0.0
23/01:30pm 29.1 27.6 14.2 40 9.0 SE 15 26 8 14 1016.7 - 0.0
23/01:15pm 29.2 28.0 14.1 39 9.1 SE 13 28 7 15 1016.7 - 0.0
23/01:00pm 29.2 28.0 14.1 39 9.1 ESE 13 19 7 10 1016.8 - 0.0
23/12:45pm 28.9 28.3 14.5 41 8.8 E 11 20 6 11 1016.9 - 0.0
23/12:30pm 28.8 29.3 15.0 43 8.4 SE 6 11 3 6 1017.0 - 0.0
23/12:15pm 28.4 28.3 14.9 43 8.2 ESE 9 15 5 8 1017.1 - 0.0
23/12:00pm 28.6 28.9 15.0 43 8.3 ESE 7 15 4 8 1017.2 - 0.0
23/11:45am 27.9 28.4 14.9 45 7.9 ENE 6 11 3 6 1017.3 - 0.0
23/11:30am 27.5 28.0 15.0 46 7.6 SSW 6 9 3 5 1017.5 - 0.0
23/11:15am 26.4 26.9 14.9 49 7.0 WSW 6 13 3 7 1017.7 - 0.0
23/11:00am 25.7 25.6 15.0 51 6.5 WSW 9 13 5 7 1017.8 - 0.0
23/10:45am 24.9 25.3 15.2 54 5.9 W 7 15 4 8 1017.9 - 0.0
23/10:30am 24.2 23.8 15.1 56 5.5 W 11 15 6 8 1017.9 - 0.0
23/10:15am 23.2 22.7 15.0 60 4.9 WNW 11 19 6 10 1018.0 - 0.0
23/10:00am 22.4 22.2 14.8 62 4.5 W 9 13 5 7 1018.1 - 0.0
23/09:45am 21.7 21.4 14.5 63 4.2 W 9 15 5 8 1018.1 - 0.0
23/09:30am 21.2 21.3 14.4 65 4.0 W 7 13 4 7 1018.1 - 0.0
23/09:15am 20.5 20.5 14.2 67 3.7 W 7 13 4 7 1018.1 - 0.0
23/09:00am 19.7 19.6 13.9 69 3.4 WNW 7 15 4 8 1018.0 - 0.0
23/08:45am 19.2 19.1 13.9 71 3.1 WNW 7 15 4 8 1018.0 - 0.0
23/08:30am 18.3 17.7 13.5 73 2.7 WNW 9 15 5 8 1018.0 - 0.0
23/08:15am 17.6 16.9 13.1 75 2.5 W 9 13 5 7 1018.1 - 0.0
23/08:00am 17.2 16.0 12.9 76 2.4 W 11 17 6 9 1018.2 - 0.0
23/07:45am 16.7 14.7 12.7 77 2.2 W 15 19 8 10 1018.2 - 0.0
23/07:30am 16.3 15.1 12.8 80 2.0 W 11 19 6 10 1018.1 - 0.0
23/07:15am 15.3 13.9 12.2 82 1.7 W 11 13 6 7 1017.9 - 0.0
23/07:00am 14.7 13.1 11.7 82 1.6 W 11 13 6 7 1017.9 - 0.0
23/06:45am 14.4 12.8 11.5 83 1.6 W 11 13 6 7 1017.8 - 0.0
23/06:30am 14.3 12.6 11.2 81 1.7 W 11 15 6 8 1017.8 - 0.0
23/06:15am 14.7 12.7 11.6 82 1.7 W 13 15 7 8 1017.5 - 0.0
23/06:00am 14.7 12.8 11.7 82 1.6 WNW 13 17 7 9 1017.5 - 0.0
23/05:45am 14.5 12.5 11.5 82 1.6 W 13 17 7 9 1017.5 - 0.0
23/05:30am 14.6 12.7 11.7 83 1.6 W 13 15 7 8 1017.5 - 0.0
23/05:15am 14.8 12.9 11.8 82 1.6 W 13 15 7 8 1017.5 - 0.0
23/05:00am 14.9 13.2 12.3 84 1.4 WNW 13 15 7 8 1017.5 - 0.0
23/04:45am 14.5 12.8 12.3 87 1.2 W 13 15 7 8 1017.5 - 0.0
23/04:30am 14.4 13.1 12.5 88 1.0 W 11 15 6 8 1017.6 - 0.0
23/04:15am 13.2 11.6 11.4 89 1.0 W 11 13 6 7 1017.7 - 0.0
23/04:00am 12.7 11.3 10.8 88 1.0 WNW 9 11 5 6 1017.6 - 0.0
23/03:45am 13.3 12.1 11.5 89 1.0 WNW 9 11 5 6 1017.8 - 0.0
23/03:30am 12.8 11.0 10.9 88 1.0 NW 11 13 6 7 1018.0 - 0.0
23/03:15am 13.3 11.7 11.4 88 1.0 NW 11 13 6 7 1018.1 - 0.0
23/03:00am 13.1 11.4 11.1 88 1.1 NW 11 13 6 7 1018.2 - 0.0
23/02:45am 13.1 11.8 11.1 88 1.1 NW 9 11 5 6 1018.4 - 0.0
23/02:30am 13.3 12.0 11.1 86 1.2 NW 9 11 5 6 1018.6 - 0.0
23/02:15am 13.5 12.2 11.2 86 1.2 NNW 9 9 5 5 1018.8 - 0.0
23/02:00am 13.8 12.9 11.4 85 1.3 NNW 7 9 4 5 1018.9 - 0.0
23/01:45am 14.2 13.1 11.8 85 1.3 N 9 11 5 6 1019.1 - 0.0
23/01:30am 14.3 12.8 11.8 85 1.4 - 11 13 6 7 1019.3 - 0.0
23/01:15am 14.2 12.2 11.5 84 1.5 N 13 15 7 8 1019.5 - 0.0
23/01:00am 14.4 12.5 11.8 84 1.4 NNE 13 15 7 8 1019.6 - 0.0
23/12:45am 14.2 12.2 11.5 84 1.5 NNE 13 15 7 8 1019.8 - 0.0
23/12:30am 14.3 12.3 11.4 83 1.6 NNE 13 15 7 8 1019.9 - 0.0
23/12:15am 14.4 12.4 11.4 82 1.6 NNE 13 15 7 8 1020.1 - 0.0
23/12:00am 14.5 12.8 11.3 81 1.7 NNE 11 13 6 7 1020.3 - 0.0
 
Date/Time
EDT
Tmp

°C
App
Tmp
°C
Dew
Point
°C
Rel
Hum
%
Delta-T

°C
Wind Press
QNH
hPa
Press
MSL
hPa
Rain
since
9 am
mm
Dir
 
Spd
km/h
Gust
km/h
Spd
kts
Gust
kts
22/11:45pm 14.9 12.9 11.5 80 1.8 NNE 13 13 7 7 1020.3 - 0.0
22/11:30pm 15.1 13.2 11.8 81 1.8 NNE 13 15 7 8 1020.5 - 0.0
22/11:15pm 15.0 13.4 11.6 80 1.8 NNE 11 15 6 8 1020.6 - 0.0
22/11:00pm 14.8 13.1 11.2 79 1.9 N 11 17 6 9 1020.7 - 0.0
22/10:45pm 15.3 13.7 11.6 78 2.0 N 11 13 6 7 1020.7 - 0.0
22/10:30pm 15.5 13.9 11.6 77 2.1 N 11 15 6 8 1020.8 - 0.0
22/10:15pm 15.6 14.0 11.6 77 2.2 N 11 15 6 8 1020.6 - 0.0
22/10:00pm 15.8 13.8 11.5 75 2.3 NNE 13 17 7 9 1020.6 - 0.0
22/09:45pm 16.1 13.8 11.7 75 2.4 NNE 15 22 8 12 1020.6 - 0.0
22/09:30pm 16.3 14.0 11.8 74 2.5 NNE 15 22 8 12 1020.5 - 0.0
22/09:15pm 16.4 13.7 11.8 74 2.5 NNE 17 22 9 12 1020.4 - 0.0
22/09:00pm 16.6 14.3 11.9 74 2.6 NNE 15 20 8 11 1020.3 - 0.0
22/08:45pm 16.7 13.7 11.9 73 2.6 NNE 19 28 10 15 1020.2 - 0.0
22/08:30pm 16.8 13.8 11.9 73 2.7 NNE 19 26 10 14 1020.2 - 0.0
22/08:15pm 16.9 14.3 12.0 73 2.7 NNE 17 22 9 12 1020.1 - 0.0
22/08:00pm 17.0 14.8 12.0 72 2.8 NNE 15 20 8 11 1020.1 - 0.0
22/07:45pm 17.3 14.7 12.1 71 2.9 NNE 17 26 9 14 1020.0 - 0.0
22/07:30pm 17.6 14.6 12.1 70 3.0 NE 19 26 10 14 1020.0 - 0.0
22/07:15pm 18.0 15.5 12.2 69 3.2 NE 17 24 9 13 1020.0 - 0.0
22/07:00pm 18.5 16.3 12.2 66 3.5 NE 15 22 8 12 1019.9 - 0.0
22/06:45pm 19.0 16.1 12.2 64 3.8 NE 19 30 10 16 1019.9 - 0.0
22/06:30pm 19.6 17.1 12.2 62 4.2 NE 17 26 9 14 1019.9 - 0.0
22/06:15pm 20.1 17.2 12.4 61 4.3 NE 19 24 10 13 1020.0 - 0.0
22/06:00pm 20.2 17.7 12.3 60 4.5 NE 17 26 9 14 1020.0 - 0.0
22/05:45pm 20.5 18.0 12.4 59 4.6 NE 17 26 9 14 1020.0 - 0.0
22/05:30pm 20.5 18.0 12.3 59 4.6 NE 17 26 9 14 1020.1 - 0.0
22/05:15pm 20.8 17.7 12.3 58 4.8 NE 20 28 11 15 1020.2 - 0.0

Latest Capital City Observations: Canberra | Sydney | Melbourne | Brisbane | Adelaide | Perth | Hobart | Darwin

Other Formats:

Comma delimited format used in spreadsheet applications
http://www.bom.gov.au/fwo/IDN60901/IDN60901.95757.axf

JavaScript Object Notation format (JSON) in row-major order
http://www.bom.gov.au/fwo/IDN60901/IDN60901.95757.json